Time;durP1;ratioP1;P1;durP2;ratioP2;P2;SDS_P1;SDS_P2;PMS_P1;PMS_P2;Temp;Humidity;BMP_temperature;BMP_pressure;BME280_temperature;BME280_humidity;BME280_pressure;Samples;Min_cycle;Max_cycle;Signal;HPM_P1;HPM_P2
2021/12/21 00:01:32;;;;;;;3.20;1.52;;;;;;;-14.85;66.74;98701.13;4999680;28;20479;-86
2021/12/21 00:04:01;;;;;;;5.50;2.15;;;;;;;-14.85;66.23;98697.75;5025006;28;20058;-86
2021/12/21 00:06:28;;;;;;;5.65;1.75;;;;;;;-14.74;66.73;98709.53;5042339;28;20065;-85
2021/12/21 00:08:55;;;;;;;5.75;2.17;;;;;;;-14.78;66.59;98719.19;5019575;28;20098;-83
2021/12/21 00:11:22;;;;;;;5.68;2.25;;;;;;;-14.80;66.84;98703.16;5002839;28;20065;-83
2021/12/21 00:14:13;;;;;;;5.13;2.42;;;;;;;-14.87;67.02;98704.28;5003994;28;20138;-84
2021/12/21 00:16:50;;;;;;;4.55;2.13;;;;;;;-14.93;66.67;98698.75;5037156;28;20038;-82
2021/12/21 00:19:45;;;;;;;6.15;2.80;;;;;;;-14.95;66.48;98702.75;5019324;28;20054;-83
2021/12/21 00:24:57;;;;;;;3.85;2.40;;;;;;;-14.82;66.53;98722.19;5010355;28;20145;-83
2021/12/21 00:27:24;;;;;;;4.60;2.13;;;;;;;-14.93;67.12;98699.59;5011801;28;20058;-84
2021/12/21 00:29:51;;;;;;;4.57;2.40;;;;;;;-14.76;67.06;98723.56;4992135;28;20050;-83
2021/12/21 00:32:18;;;;;;;3.63;1.80;;;;;;;-14.74;66.60;98712.06;4980993;28;20058;-83
2021/12/21 00:34:45;;;;;;;4.38;2.22;;;;;;;-14.76;67.02;98705.16;4997528;28;20184;-83
2021/12/21 00:37:12;;;;;;;3.75;1.85;;;;;;;-14.56;66.82;98722.75;4997485;28;20113;-82
2021/12/21 00:40:07;;;;;;;3.00;1.63;;;;;;;-14.51;67.43;98725.59;4993599;28;20514;-83
2021/12/21 00:42:34;;;;;;;6.28;1.95;;;;;;;-14.52;67.04;98718.81;4997321;28;20050;-83
2021/12/21 00:45:01;;;;;;;2.20;1.55;;;;;;;-14.53;67.59;98730.47;4997401;28;20116;-85
2021/12/21 00:47:34;;;;;;;3.33;1.83;;;;;;;-14.59;66.96;98744.16;4996380;28;20050;-83
2021/12/21 00:50:03;;;;;;;4.32;1.83;;;;;;;-14.62;67.33;98731.38;4996341;28;20062;-85
2021/12/21 00:52:31;;;;;;;4.18;1.70;;;;;;;-14.58;67.38;98714.22;4996273;28;20054;-83
2021/12/21 00:55:00;;;;;;;5.13;2.50;;;;;;;-14.43;67.63;98735.50;5004848;28;20094;-82
2021/12/21 00:57:28;;;;;;;6.35;2.33;;;;;;;-14.28;67.99;98727.47;4982234;28;20050;-85
2021/12/21 00:59:55;;;;;;;2.58;1.40;;;;;;;-14.27;67.01;98717.56;5016519;28;20060;-84
2021/12/21 01:02:22;;;;;;;3.42;2.38;;;;;;;-14.26;67.45;98734.38;5016177;28;20107;-82
2021/12/21 01:04:55;;;;;;;5.18;2.05;;;;;;;-14.27;66.97;98732.59;5015733;28;20057;-83
2021/12/21 01:07:29;;;;;;;3.55;1.95;;;;;;;-14.34;67.19;98737.88;5015908;28;20062;-83
2021/12/21 01:17:55;;;;;;;4.32;2.47;;;;;;;-14.44;67.47;98733.72;5016583;28;20056;-85
2021/12/21 01:29:01;;;;;;;4.32;1.92;;;;;;;-14.62;67.34;98719.72;5021163;28;20053;-84
2021/12/21 01:31:17;;;;;;;5.45;2.13;;;;;;;-14.75;67.96;98705.28;5003789;28;20494;-84
2021/12/21 01:36:23;;;;;;;3.17;1.98;;;;;;;-14.55;67.24;98738.66;5016379;28;20311;-86
2021/12/21 01:41:36;;;;;;;5.72;2.20;;;;;;;-14.64;67.49;98731.25;5015333;28;20140;-84
2021/12/21 01:49:41;;;;;;;4.35;1.75;;;;;;;-14.68;67.04;98725.09;5014657;28;20062;-85
2021/12/21 01:52:15;;;;;;;6.22;2.00;;;;;;;-14.62;66.90;98748.91;5015212;28;20053;-83
2021/12/21 01:54:46;;;;;;;3.20;1.83;;;;;;;-14.74;67.06;98742.13;5009589;28;20047;-84
2021/12/21 01:57:13;;;;;;;3.20;1.88;;;;;;;-14.76;67.34;98760.31;4978238;28;20104;-85
2021/12/21 01:59:42;;;;;;;5.18;2.10;;;;;;;-14.70;66.92;98753.31;4996441;28;20054;-85
2021/12/21 02:02:13;;;;;;;2.92;1.90;;;;;;;-14.66;67.16;98766.22;4996694;28;20577;-85
2021/12/21 02:04:41;;;;;;;3.08;1.58;;;;;;;-14.68;67.55;98767.72;4996489;28;20054;-86
2021/12/21 02:07:09;;;;;;;2.50;1.55;;;;;;;-14.58;67.63;98773.50;4979433;28;20108;-85
2021/12/21 02:09:39;;;;;;;4.10;1.83;;;;;;;-14.72;66.48;98738.13;4996650;28;20054;-85
2021/12/21 02:12:13;;;;;;;3.13;1.52;;;;;;;-14.66;66.63;98765.34;4995607;28;20069;-86
2021/12/21 02:14:43;;;;;;;2.83;1.80;;;;;;;-14.60;66.43;98770.00;5010410;28;20058;-84
2021/12/21 02:23:15;;;;;;;4.28;1.73;;;;;;;-15.02;66.43;98743.94;4995864;28;20042;-85
2021/12/21 02:26:04;;;;;;;5.15;2.08;;;;;;;-14.92;66.86;98768.19;4995862;28;20521;-86
2021/12/21 02:30:57;;;;;;;2.20;1.42;;;;;;;-14.97;67.09;98789.44;4995226;28;20050;-84
2021/12/21 02:33:26;;;;;;;3.95;1.75;;;;;;;-14.91;66.48;98777.44;4995303;28;20117;-84
2021/12/21 02:35:54;;;;;;;2.03;1.55;;;;;;;-14.93;66.06;98757.25;4997232;28;20061;-86
2021/12/21 02:38:21;;;;;;;3.65;1.58;;;;;;;-14.98;66.12;98761.00;4996489;28;20069;-84
2021/12/21 02:40:48;;;;;;;8.90;2.30;;;;;;;-15.02;66.45;98748.09;4995831;28;20065;-85
2021/12/21 02:43:15;;;;;;;5.53;1.83;;;;;;;-14.88;66.29;98783.59;4977431;28;20525;-83
2021/12/21 02:45:42;;;;;;;3.38;1.88;;;;;;;-14.92;66.52;98779.09;4977591;28;20057;-85
2021/12/21 02:48:10;;;;;;;4.47;1.80;;;;;;;-14.91;66.26;98779.94;4995275;28;20081;-86
2021/12/21 02:50:38;;;;;;;4.10;1.60;;;;;;;-14.92;66.87;98781.59;4994579;28;20066;-84
2021/12/21 02:53:07;;;;;;;3.08;1.73;;;;;;;-14.74;66.83;98784.75;4976795;28;20515;-84
2021/12/21 02:55:34;;;;;;;3.35;1.75;;;;;;;-14.68;66.79;98791.94;5008898;28;20112;-87
2021/12/21 02:58:02;;;;;;;5.38;2.33;;;;;;;-14.68;66.31;98794.44;4998697;28;20056;-87
2021/12/21 03:00:31;;;;;;;2.20;1.60;;;;;;;-14.79;66.32;98785.13;4998869;28;20053;-87
2021/12/21 03:03:06;;;;;;;4.37;1.63;;;;;;;-14.83;66.66;98804.06;4997738;28;20124;-89
2021/12/21 03:05:34;;;;;;;2.00;1.25;;;;;;;-14.87;66.02;98799.53;5016229;28;20281;-84
2021/12/21 03:08:09;;;;;;;5.70;2.42;;;;;;;-14.87;66.50;98802.91;5016466;28;20077;-85
2021/12/21 03:10:36;;;;;;;3.38;1.95;;;;;;;-14.82;66.37;98802.41;4999936;28;20058;-81
2021/12/21 03:15:49;;;;;;;5.28;2.13;;;;;;;-14.62;66.66;98810.00;5015273;28;20049;-85
2021/12/21 03:18:16;;;;;;;4.47;1.58;;;;;;;-14.60;65.89;98812.63;5032205;28;20057;-84
2021/12/21 03:20:43;;;;;;;2.33;1.30;;;;;;;-14.54;66.08;98815.63;5017074;28;20114;-84
2021/12/21 03:23:11;;;;;;;3.05;1.80;;;;;;;-14.67;65.77;98808.72;5016063;28;20054;-84
2021/12/21 03:25:37;;;;;;;3.17;1.73;;;;;;;-14.77;65.90;98798.69;5023204;28;20118;-83
2021/12/21 03:28:04;;;;;;;4.72;1.75;;;;;;;-14.78;65.87;98814.47;5003547;28;20418;-85
2021/12/21 03:30:32;;;;;;;4.15;1.50;;;;;;;-14.89;65.98;98796.88;5017004;28;20144;-82
2021/12/21 03:32:59;;;;;;;1.70;1.15;;;;;;;-14.79;65.68;98823.63;5021420;28;20064;-82
2021/12/21 03:35:26;;;;;;;3.35;1.30;;;;;;;-14.90;66.25;98812.69;5019141;28;20061;-82
2021/12/21 03:37:53;;;;;;;5.32;2.10;;;;;;;-14.83;66.35;98833.25;5021043;28;20050;-83
2021/12/21 03:40:20;;;;;;;4.47;1.98;;;;;;;-14.87;66.21;98835.47;5023630;28;20068;-82
2021/12/21 03:42:47;;;;;;;1.85;1.38;;;;;;;-14.83;65.42;98845.78;5036123;28;20034;-79
2021/12/21 03:45:14;;;;;;;4.07;1.75;;;;;;;-14.89;65.84;98831.97;5026451;28;20062;-82
2021/12/21 03:47:41;;;;;;;4.20;1.73;;;;;;;-14.85;66.30;98834.00;5019477;28;20049;-83
2021/12/21 03:50:16;;;;;;;4.90;2.30;;;;;;;-14.85;66.55;98831.47;5004434;28;20068;-84
2021/12/21 03:52:44;;;;;;;2.88;1.38;;;;;;;-14.76;65.80;98841.41;5008647;28;20081;-81
2021/12/21 03:55:12;;;;;;;4.00;1.80;;;;;;;-14.91;66.03;98830.09;5011993;28;20058;-84
2021/12/21 03:57:39;;;;;;;6.22;1.98;;;;;;;-14.82;66.27;98857.56;5011288;28;20054;-82
2021/12/21 04:00:11;;;;;;;5.85;2.90;;;;;;;-14.80;65.93;98841.91;5010138;28;20055;-82
2021/12/21 04:02:38;;;;;;;3.53;1.98;;;;;;;-14.83;66.03;98851.69;5002832;28;20149;-83
2021/12/21 04:05:06;;;;;;;3.83;1.80;;;;;;;-14.91;65.29;98825.94;4988055;28;20058;-83
2021/12/21 04:07:36;;;;;;;2.38;1.40;;;;;;;-14.91;65.86;98842.63;5008009;28;20058;-83
2021/12/21 04:10:04;;;;;;;3.55;1.98;;;;;;;-14.91;65.59;98862.66;5006782;28;20430;-84
2021/12/21 04:12:34;;;;;;;5.85;1.98;;;;;;;-14.96;65.72;98841.34;5005445;28;20462;-84
2021/12/21 04:15:04;;;;;;;5.47;2.30;;;;;;;-15.03;65.87;98846.56;4983177;28;20062;-80
2021/12/21 04:17:34;;;;;;;4.40;2.13;;;;;;;-15.08;66.05;98818.59;4998312;28;20081;-81
2021/12/21 04:20:02;;;;;;;5.40;2.30;;;;;;;-14.78;66.27;98852.06;4965230;28;20050;-82
2021/12/21 04:22:29;;;;;;;2.58;1.48;;;;;;;-14.70;65.56;98844.44;4998295;28;20050;-82
2021/12/21 04:25:03;;;;;;;5.00;2.13;;;;;;;-14.74;65.81;98837.41;4999200;28;20046;-83
2021/12/21 04:27:30;;;;;;;4.80;2.70;;;;;;;-14.87;66.37;98827.97;5013129;28;20435;-81
2021/12/21 04:29:58;;;;;;;5.38;2.08;;;;;;;-15.14;66.40;98811.47;4998307;28;20081;-80
2021/12/21 04:32:25;;;;;;;6.75;2.47;;;;;;;-14.88;66.13;98856.31;5000190;28;20066;-85
2021/12/21 04:34:52;;;;;;;4.15;1.77;;;;;;;-14.90;65.96;98852.78;4983174;28;20521;-80
2021/12/21 04:37:19;;;;;;;4.68;2.15;;;;;;;-14.91;66.85;98847.63;5014255;28;20574;-81
2021/12/21 04:40:04;;;;;;;7.07;2.60;;;;;;;-14.84;66.83;98857.44;4985922;28;20050;-81
2021/12/21 04:42:37;;;;;;;5.88;2.15;;;;;;;-15.12;66.79;98834.13;4996145;28;20058;-84
2021/12/21 04:45:04;;;;;;;5.35;2.17;;;;;;;-14.98;66.90;98867.91;5002420;28;20069;-84
2021/12/21 04:47:32;;;;;;;3.55;2.22;;;;;;;-14.90;66.70;98882.88;5001254;28;20113;-83
2021/12/21 04:49:59;;;;;;;3.72;2.13;;;;;;;-14.86;66.70;98884.00;5018923;28;20062;-85
2021/12/21 04:52:26;;;;;;;5.68;2.50;;;;;;;-14.92;66.72;98878.47;5019232;28;20174;-81
2021/12/21 04:54:54;;;;;;;4.53;2.33;;;;;;;-15.03;67.04;98870.03;5006268;28;20030;-82
2021/12/21 04:57:24;;;;;;;4.00;2.03;;;;;;;-15.00;66.69;98886.94;4974268;28;20130;-82
2021/12/21 04:59:50;;;;;;;7.05;2.92;;;;;;;-15.02;66.76;98880.91;4995524;28;20064;-82
2021/12/21 05:02:18;;;;;;;6.53;2.30;;;;;;;-14.94;66.75;98902.53;5030862;28;20054;-84
2021/12/21 05:04:47;;;;;;;5.72;1.85;;;;;;;-14.99;66.83;98877.06;4999351;28;20097;-82
2021/12/21 05:07:21;;;;;;;7.70;2.58;;;;;;;-14.94;66.79;98902.53;4998889;28;20030;-81
2021/12/21 05:09:56;;;;;;;5.60;2.45;;;;;;;-15.07;67.27;98883.03;5029326;28;20102;-82
2021/12/21 05:12:23;;;;;;;5.55;2.97;;;;;;;-14.95;66.80;98908.25;4999505;28;20031;-83
2021/12/21 05:14:50;;;;;;;5.85;2.95;;;;;;;-15.00;66.75;98910.38;4991314;28;20071;-83
2021/12/21 05:17:17;;;;;;;6.63;2.65;;;;;;;-15.10;67.11;98902.78;4995472;28;20058;-84
2021/12/21 05:19:45;;;;;;;5.85;2.90;;;;;;;-15.02;66.81;98916.00;4995777;28;20050;-83
2021/12/21 05:22:12;;;;;;;8.27;2.55;;;;;;;-15.00;67.43;98907.00;4998397;28;20045;-81
2021/12/21 05:24:39;;;;;;;6.95;3.03;;;;;;;-14.86;67.24;98929.09;4995075;28;20511;-81
2021/12/21 05:27:07;;;;;;;6.20;2.38;;;;;;;-14.96;67.13;98916.53;4994671;28;20034;-83
2021/12/21 05:29:34;;;;;;;8.40;3.55;;;;;;;-14.97;66.62;98900.59;4980549;28;20035;-82
2021/12/21 05:32:02;;;;;;;9.27;2.58;;;;;;;-14.68;66.47;98932.34;4997001;28;20038;-82
2021/12/21 05:34:29;;;;;;;3.95;2.40;;;;;;;-14.80;66.97;98908.72;4998334;28;20058;-80
2021/12/21 05:36:57;;;;;;;6.30;2.95;;;;;;;-14.77;67.00;98924.91;4997622;28;20126;-81
2021/12/21 05:39:27;;;;;;;7.85;3.10;;;;;;;-14.69;67.12;98931.47;4997711;28;20082;-81
2021/12/21 05:41:56;;;;;;;7.10;3.08;;;;;;;-14.68;67.35;98938.25;4997671;28;20066;-81
2021/12/21 05:44:24;;;;;;;7.68;3.58;;;;;;;-14.91;67.15;98892.75;4988285;28;20455;-82
2021/12/21 05:46:55;;;;;;;9.35;4.32;;;;;;;-14.56;66.84;98945.97;4974247;28;20051;-81
2021/12/21 05:49:22;;;;;;;11.68;4.15;;;;;;;-14.60;67.31;98911.34;4977695;28;20065;-81
2021/12/21 05:51:50;;;;;;;8.38;3.40;;;;;;;-14.41;66.76;98927.91;5014919;28;20537;-83
2021/12/21 05:54:21;;;;;;;9.45;3.63;;;;;;;-14.40;66.03;98945.59;4997868;28;20108;-84
2021/12/21 05:56:48;;;;;;;10.63;4.20;;;;;;;-14.51;66.37;98937.16;5013172;28;20418;-82
2021/12/21 05:59:15;;;;;;;12.55;3.92;;;;;;;-14.52;66.30;98939.53;5015079;28;20501;-83
2021/12/21 06:01:42;;;;;;;8.55;3.85;;;;;;;-14.55;66.02;98937.66;5014635;28;20054;-82
2021/12/21 06:04:09;;;;;;;9.23;4.10;;;;;;;-14.48;66.16;98944.06;5014556;28;20053;-81
2021/12/21 06:06:39;;;;;;;7.85;4.00;;;;;;;-14.46;66.23;98932.53;5012614;28;20053;-81
2021/12/21 06:09:09;;;;;;;9.65;4.50;;;;;;;-14.36;66.41;98950.13;4997838;28;20077;-85
2021/12/21 06:11:42;;;;;;;13.93;4.32;;;;;;;-14.27;66.58;98948.41;5015173;28;20060;-83
2021/12/21 06:14:37;;;;;;;12.10;4.55;;;;;;;-14.30;66.40;98928.09;4982193;28;20053;-84
2021/12/21 06:22:46;;;;;;;5.15;3.13;;;;;;;-14.35;65.49;98966.94;5017134;28;20049;-82
2021/12/21 06:25:58;;;;;;;7.45;2.58;;;;;;;-14.53;65.40;98973.75;5020109;28;20089;-84
2021/12/21 06:28:06;;;;;;;6.47;2.25;;;;;;;-14.56;66.20;98971.03;5027636;28;20105;-84
2021/12/21 06:30:35;;;;;;;6.20;2.80;;;;;;;-14.47;65.53;98968.41;5015514;28;20061;-87
2021/12/21 06:33:02;;;;;;;6.90;2.78;;;;;;;-14.43;65.99;98981.34;5030244;28;20070;-83
2021/12/21 06:35:30;;;;;;;5.95;3.08;;;;;;;-14.38;65.88;98964.19;5031134;28;20058;-83
2021/12/21 06:37:57;;;;;;;12.55;3.13;;;;;;;-14.53;65.13;98915.19;5048404;28;20084;-83
2021/12/21 06:40:25;;;;;;;5.25;2.33;;;;;;;-14.29;65.55;98961.56;5031965;28;20104;-82
2021/12/21 06:42:53;;;;;;;8.90;2.75;;;;;;;-14.26;65.09;98970.25;5030413;28;20081;-86
2021/12/21 06:45:43;;;;;;;6.18;2.65;;;;;;;-14.08;65.42;98980.09;5024993;28;20056;-83
2021/12/21 06:53:39;;;;;;;5.22;2.72;;;;;;;-14.44;64.87;98953.59;5023335;28;20569;-86
2021/12/21 06:56:08;;;;;;;8.05;2.67;;;;;;;-14.35;65.15;98979.47;5010313;28;20061;-81
2021/12/21 06:58:35;;;;;;;7.93;2.70;;;;;;;-14.27;64.82;98985.16;5014471;28;20049;-84
2021/12/21 07:01:03;;;;;;;5.25;2.30;;;;;;;-14.33;64.29;98969.59;5027259;28;20072;-82
2021/12/21 07:03:37;;;;;;;7.30;2.95;;;;;;;-14.20;64.07;98986.56;5017185;28;20060;-83
2021/12/21 07:06:07;;;;;;;5.60;2.53;;;;;;;-14.27;64.39;98972.63;5035358;28;20148;-84
2021/12/21 07:19:37;;;;;;;6.88;2.88;;;;;;;-14.27;64.53;98993.56;4962122;28;20103;-83
2021/12/21 07:22:05;;;;;;;8.23;2.38;;;;;;;-14.41;64.84;98963.03;5001276;28;20049;-84
2021/12/21 07:24:33;;;;;;;5.85;2.30;;;;;;;-14.13;64.13;99008.91;5024650;28;20054;-83
2021/12/21 07:27:00;;;;;;;4.43;2.40;;;;;;;-14.29;64.16;99006.75;5023427;28;20057;-83
2021/12/21 07:29:28;;;;;;;4.60;2.63;;;;;;;-14.43;63.58;99006.44;4983143;28;20429;-84
2021/12/21 07:31:55;;;;;;;7.32;2.95;;;;;;;-14.36;64.44;99017.00;5015786;28;20465;-84
2021/12/21 07:34:22;;;;;;;5.55;2.50;;;;;;;-14.26;64.41;99015.41;5018470;28;20081;-84
2021/12/21 07:36:49;;;;;;;4.03;2.35;;;;;;;-14.28;63.54;99021.03;5001830;28;20064;-85
2021/12/21 07:39:18;;;;;;;8.05;2.20;;;;;;;-14.47;63.72;98991.00;5013222;28;20185;-86
2021/12/21 07:42:06;;;;;;;7.25;2.95;;;;;;;-14.36;63.78;99005.34;5024460;28;20027;-80
2021/12/21 07:44:33;;;;;;;4.20;2.30;;;;;;;-14.09;63.78;99029.38;5024860;28;20101;-83
2021/12/21 07:47:00;;;;;;;4.43;2.35;;;;;;;-14.00;63.12;99025.91;5041133;28;20085;-85
2021/12/21 07:49:28;;;;;;;4.75;2.65;;;;;;;-13.90;63.47;99016.78;5040406;28;20050;-83
2021/12/21 07:51:55;;;;;;;5.28;3.63;;;;;;;-13.84;63.04;99022.31;5038052;28;20421;-83
2021/12/21 07:54:22;;;;;;;9.38;3.25;;;;;;;-13.88;62.65;99024.44;4999647;28;20114;-85
2021/12/21 07:56:50;;;;;;;5.55;2.72;;;;;;;-13.89;62.64;99023.59;5015631;28;20051;-84
2021/12/21 07:59:17;;;;;;;7.47;3.25;;;;;;;-13.84;62.57;99018.94;5017794;28;20065;-85
2021/12/21 08:01:44;;;;;;;6.70;2.97;;;;;;;-13.84;62.63;99021.47;5014017;28;20050;-82
2021/12/21 08:04:12;;;;;;;6.45;2.83;;;;;;;-13.86;61.98;99028.84;4983272;28;20423;-83
2021/12/21 08:06:40;;;;;;;5.70;3.00;;;;;;;-14.02;62.43;99018.28;4981214;28;20597;-84
2021/12/21 08:09:07;;;;;;;6.95;3.00;;;;;;;-14.09;62.69;98996.75;4999276;28;20051;-82
2021/12/21 08:12:16;;;;;;;8.38;3.20;;;;;;;-13.96;62.40;99017.91;5000272;28;20065;-83
2021/12/21 08:14:54;;;;;;;4.97;2.65;;;;;;;-13.91;62.20;99035.13;5005946;28;20039;-83
2021/12/21 08:17:24;;;;;;;5.53;2.75;;;;;;;-13.91;62.19;99014.16;5016080;28;20498;-82
2021/12/21 08:19:51;;;;;;;9.60;3.88;;;;;;;-14.04;62.60;99003.06;5019018;28;20031;-83
2021/12/21 08:22:18;;;;;;;7.95;3.53;;;;;;;-13.89;62.84;99016.06;5019594;28;20091;-84
2021/12/21 08:24:48;;;;;;;8.60;3.75;;;;;;;-13.73;63.12;99022.38;5018950;28;20046;-84
2021/12/21 08:27:15;;;;;;;8.88;4.00;;;;;;;-13.65;62.36;99003.81;5016067;28;20050;-82
2021/12/21 08:29:42;;;;;;;7.45;3.63;;;;;;;-13.60;62.27;99002.53;5020342;28;20049;-83
2021/12/21 08:32:10;;;;;;;10.40;4.03;;;;;;;-13.52;62.04;99045.91;5022248;28;20069;-83
2021/12/21 08:34:38;;;;;;;7.30;3.25;;;;;;;-13.78;61.54;99036.19;5024882;28;20057;-82
2021/12/21 08:37:05;;;;;;;8.55;3.25;;;;;;;-13.95;62.24;99019.66;4992072;28;20399;-83
2021/12/21 08:39:39;;;;;;;9.45;3.25;;;;;;;-13.78;62.73;99033.66;5011317;28;20057;-82
2021/12/21 08:42:11;;;;;;;7.00;3.85;;;;;;;-13.74;62.08;99036.56;5006869;28;20058;-82
2021/12/21 08:44:48;;;;;;;9.02;3.63;;;;;;;-13.73;61.91;99024.88;5003722;28;20055;-82
2021/12/21 08:47:16;;;;;;;6.68;2.90;;;;;;;-13.66;61.69;99044.72;4990964;28;20097;-82
2021/12/21 08:49:47;;;;;;;9.57;3.90;;;;;;;-13.72;62.19;99001.50;4997269;28;20431;-83
2021/12/21 08:52:14;;;;;;;4.82;3.08;;;;;;;-13.66;61.69;99034.69;5005003;28;20046;-82
2021/12/21 08:54:45;;;;;;;5.47;2.47;;;;;;;-13.58;61.70;99041.22;4971111;28;20522;-84
2021/12/21 08:57:12;;;;;;;7.13;3.00;;;;;;;-13.66;61.63;99042.22;4991566;28;20058;-83
2021/12/21 08:59:39;;;;;;;7.10;3.25;;;;;;;-13.65;61.33;99044.00;4985352;28;20058;-82
2021/12/21 09:02:09;;;;;;;6.20;3.03;;;;;;;-13.85;61.72;99027.22;4969591;28;20051;-86
2021/12/21 09:04:37;;;;;;;6.35;2.97;;;;;;;-13.72;62.54;99026.63;4988151;28;20050;-83
2021/12/21 09:07:05;;;;;;;6.80;3.05;;;;;;;-13.69;62.11;99029.41;4954906;28;20509;-86
2021/12/21 09:09:36;;;;;;;8.45;4.07;;;;;;;-13.54;61.95;99025.66;5000048;28;20047;-83
2021/12/21 09:12:03;;;;;;;5.95;3.47;;;;;;;-13.45;62.19;99023.91;4985521;28;20081;-85
2021/12/21 09:14:32;;;;;;;11.55;3.97;;;;;;;-13.48;61.99;99003.56;4985379;28;20112;-84
2021/12/21 09:17:01;;;;;;;6.68;3.08;;;;;;;-13.47;62.03;99040.50;4985020;28;20057;-84
2021/12/21 09:19:28;;;;;;;9.23;4.15;;;;;;;-13.51;62.23;99047.66;5000638;28;20137;-85
2021/12/21 09:21:59;;;;;;;9.88;3.95;;;;;;;-13.66;61.96;99015.44;4982404;28;20046;-85
2021/12/21 09:24:26;;;;;;;11.57;4.60;;;;;;;-13.51;62.14;99035.09;4996018;28;20058;-84
2021/12/21 09:26:53;;;;;;;8.18;3.60;;;;;;;-13.37;62.41;99034.63;4993107;28;20084;-83
2021/12/21 09:29:23;;;;;;;9.10;4.18;;;;;;;-13.33;62.35;99025.69;4986073;28;20113;-83
2021/12/21 09:31:50;;;;;;;12.88;4.88;;;;;;;-13.53;62.10;99024.03;4985584;28;20054;-84
2021/12/21 09:34:17;;;;;;;17.13;5.38;;;;;;;-13.63;61.81;99043.34;4987267;28;20050;-85
2021/12/21 09:36:47;;;;;;;15.40;5.93;;;;;;;-13.75;62.43;99022.22;4985634;28;20050;-83
2021/12/21 09:39:21;;;;;;;13.55;5.22;;;;;;;-13.60;62.70;99037.72;4969685;28;20145;-84
2021/12/21 09:41:48;;;;;;;10.95;4.53;;;;;;;-13.52;61.86;99044.25;4984861;28;20058;-84
2021/12/21 09:44:16;;;;;;;9.00;4.60;;;;;;;-13.32;62.42;99032.47;4969645;28;20047;-83
2021/12/21 09:46:44;;;;;;;14.55;5.90;;;;;;;-13.21;61.89;99014.97;4984831;28;20061;-82
2021/12/21 09:49:11;;;;;;;13.52;5.72;;;;;;;-13.17;61.39;99001.03;4984596;28;20089;-84
2021/12/21 09:51:39;;;;;;;11.98;4.93;;;;;;;-13.14;61.17;98995.38;4986844;28;20063;-85
2021/12/21 09:54:08;;;;;;;14.63;6.20;;;;;;;-12.99;61.82;99034.31;4970761;28;20093;-87
2021/12/21 09:56:35;;;;;;;12.63;5.30;;;;;;;-13.05;61.39;99028.81;4980291;28;20046;-86
2021/12/21 09:59:25;;;;;;;10.43;4.40;;;;;;;-13.28;62.02;99016.91;4986074;28;20054;-85
2021/12/21 10:01:57;;;;;;;9.52;4.32;;;;;;;-13.15;61.38;99026.31;4982920;28;20133;-83
2021/12/21 10:04:26;;;;;;;8.35;4.10;;;;;;;-13.11;61.36;99026.69;4968398;28;20054;-84
2021/12/21 10:07:00;;;;;;;9.95;4.53;;;;;;;-13.01;61.88;99033.34;4966192;28;20499;-83
2021/12/21 10:09:35;;;;;;;10.10;4.68;;;;;;;-12.85;61.55;99045.53;4983817;28;20050;-83
2021/12/21 10:12:04;;;;;;;8.10;4.10;;;;;;;-12.81;61.10;99047.53;4964279;28;20482;-84
2021/12/21 10:14:32;;;;;;;10.38;4.28;;;;;;;-13.27;61.21;99023.63;4985644;28;20060;-84
2021/12/21 10:17:07;;;;;;;12.63;4.75;;;;;;;-13.46;61.59;99026.31;4983471;28;20058;-85
2021/12/21 10:19:42;;;;;;;10.35;4.18;;;;;;;-13.38;61.41;99030.31;4986304;28;20233;-86
2021/12/21 10:22:12;;;;;;;13.65;5.47;;;;;;;-13.28;61.14;99031.97;4985869;28;20054;-85
2021/12/21 10:24:49;;;;;;;14.82;4.60;;;;;;;-13.48;60.89;99003.56;4967914;28;20141;-84
2021/12/21 10:27:18;;;;;;;10.73;4.30;;;;;;;-13.48;61.06;99011.09;4989232;28;20427;-84
2021/12/21 10:29:57;;;;;;;9.32;4.03;;;;;;;-13.32;61.39;99035.88;4968005;28;20059;-84
2021/12/21 10:32:32;;;;;;;10.85;4.00;;;;;;;-13.48;61.05;99032.84;4984506;28;20054;-84
2021/12/21 10:35:07;;;;;;;8.02;3.03;;;;;;;-13.42;61.56;99033.34;4982856;28;20427;-84
2021/12/21 10:37:39;;;;;;;9.57;4.35;;;;;;;-13.62;61.12;98989.84;4983493;28;20046;-83
2021/12/21 10:40:24;;;;;;;7.60;3.80;;;;;;;-13.23;61.56;99041.59;4985245;28;20050;-84
2021/12/21 10:43:00;;;;;;;9.77;3.47;;;;;;;-13.22;61.04;99060.97;4986732;28;20059;-85
2021/12/21 10:45:34;;;;;;;7.10;2.97;;;;;;;-13.54;61.19;99053.31;4984768;28;20061;-86
2021/12/21 10:48:06;;;;;;;6.45;3.80;;;;;;;-13.73;62.10;99055.88;4970408;28;20499;-84
2021/12/21 10:50:34;;;;;;;11.82;3.92;;;;;;;-13.75;61.95;99042.31;4991741;28;20061;-84
2021/12/21 10:53:03;;;;;;;7.25;3.28;;;;;;;-13.70;62.40;99042.69;4988191;28;20116;-85
2021/12/21 10:56:02;;;;;;;9.25;3.88;;;;;;;-13.58;61.90;99055.44;4987689;28;20057;-86
2021/12/21 10:58:43;;;;;;;7.03;3.63;;;;;;;-13.87;61.57;99019.56;4987759;28;20054;-85
2021/12/21 11:01:12;;;;;;;;;;;;;;;-13.88;62.13;99050.44;4966295;28;20059;-84
2021/12/21 11:03:46;;;;;;;8.60;4.18;;;;;;;-14.13;61.83;99007.31;4966584;28;19926;-83
2021/12/21 11:06:36;;;;;;;11.90;4.57;;;;;;;-13.82;62.58;99058.50;4986759;28;20153;-84
2021/12/21 11:09:04;;;;;;;9.40;4.07;;;;;;;-13.90;62.46;99039.38;4984591;28;20059;-86
2021/12/21 11:11:47;;;;;;;7.38;3.83;;;;;;;-13.81;62.07;99041.78;4985667;28;20085;-85
2021/12/21 11:14:18;;;;;;;13.48;4.45;;;;;;;-13.85;62.17;99058.25;4969895;28;20046;-84
2021/12/21 11:16:46;;;;;;;;;;;;;;;-13.82;63.22;99072.69;4994032;28;20462;-83
2021/12/21 11:19:17;;;;;;;9.30;4.20;;;;;;;-13.86;63.02;99038.91;4977066;28;19952;-84
2021/12/21 11:21:46;;;;;;;7.50;4.00;;;;;;;-13.54;62.74;99070.88;4976113;28;20145;-84
2021/12/21 11:24:17;;;;;;;11.32;4.25;;;;;;;-13.67;62.12;99076.50;5001355;28;20110;-83
2021/12/21 11:26:52;;;;;;;10.40;4.32;;;;;;;-13.77;62.47;99091.53;4988663;28;20054;-84
2021/12/21 11:29:20;;;;;;;9.63;3.35;;;;;;;-13.80;62.79;99093.78;4972800;28;20050;-85
2021/12/21 11:31:51;;;;;;;8.85;3.70;;;;;;;-13.84;62.56;99095.16;4989081;28;20053;-83
2021/12/21 11:34:21;;;;;;;14.23;3.95;;;;;;;-13.89;63.30;99076.31;4988969;28;20047;-83
2021/12/21 11:39:41;;;;;;;8.18;3.92;;;;;;;-13.89;62.42;99083.84;4994830;28;20066;-84
2021/12/21 11:42:35;;;;;;;7.57;3.80;;;;;;;-13.92;62.64;99095.25;4984123;28;20435;-84
2021/12/21 11:45:15;;;;;;;10.93;4.07;;;;;;;-13.96;62.92;99080.66;5002126;28;20061;-85
2021/12/21 11:47:55;;;;;;;9.25;3.97;;;;;;;-13.69;62.97;99110.66;5015839;28;20030;-84
2021/12/21 11:50:27;;;;;;;9.13;4.07;;;;;;;-13.55;62.80;99111.81;5021840;28;20134;-85
2021/12/21 11:53:08;;;;;;;14.50;5.03;;;;;;;-13.47;62.41;99120.03;4999428;28;20503;-83
2021/12/21 11:55:39;;;;;;;10.15;4.72;;;;;;;-13.52;62.41;99104.56;5000974;28;20122;-83
2021/12/21 11:58:32;;;;;;;13.15;4.82;;;;;;;-13.64;62.70;99085.94;4998085;28;20097;-81
2021/12/21 12:01:19;;;;;;;10.93;4.70;;;;;;;-13.66;62.86;99102.50;4992152;28;20055;-83
2021/12/21 12:04:12;;;;;;;17.52;5.32;;;;;;;-13.72;63.23;99107.00;4984990;28;20054;-83
2021/12/21 12:06:58;;;;;;;14.90;5.20;;;;;;;-13.76;63.08;99123.44;4984777;28;20059;-82
2021/12/21 12:09:34;;;;;;;10.27;4.07;;;;;;;-13.65;62.83;99132.78;4967427;28;20082;-83
2021/12/21 12:12:17;;;;;;;9.80;4.60;;;;;;;-13.83;63.39;99117.03;4998694;28;20062;-82
2021/12/21 12:14:45;;;;;;;;;;;;;;;-13.93;63.36;99126.13;4979747;28;20133;-86
2021/12/21 12:17:22;;;;;;;9.05;4.20;;;;;;;-13.92;64.06;99137.94;4987939;28;19926;-82
2021/12/21 12:19:58;;;;;;;10.32;3.00;;;;;;;-13.77;63.57;99135.88;4954623;28;20042;-82
2021/12/21 12:22:41;;;;;;;11.80;4.05;;;;;;;-13.96;63.67;99141.78;4942400;28;20057;-85
2021/12/21 12:25:20;;;;;;;10.65;4.10;;;;;;;-14.07;63.63;99140.84;4971631;28;20145;-83
2021/12/21 12:27:50;;;;;;;8.63;3.65;;;;;;;-14.11;63.86;99132.91;4981939;28;20054;-82
2021/12/21 12:30:23;;;;;;;10.98;4.22;;;;;;;-14.19;63.81;99144.81;4955139;28;20050;-82
2021/12/21 12:32:59;;;;;;;11.05;3.95;;;;;;;-14.26;64.39;99158.47;4986086;28;20059;-80
2021/12/21 12:35:37;;;;;;;10.38;4.25;;;;;;;-14.21;63.67;99170.53;4986782;28;20053;-81
2021/12/21 12:38:15;;;;;;;10.88;3.90;;;;;;;-14.28;63.67;99154.94;4968844;28;20494;-82
2021/12/21 12:40:49;;;;;;;8.70;3.92;;;;;;;-14.33;64.35;99170.31;4989748;28;20050;-83
2021/12/21 12:43:22;;;;;;;12.13;3.15;;;;;;;-14.44;64.19;99172.72;4973538;28;20050;-83
2021/12/21 12:46:06;;;;;;;8.75;4.18;;;;;;;-14.54;64.56;99159.22;4956796;28;20285;-86
2021/12/21 12:48:43;;;;;;;6.95;3.00;;;;;;;-14.56;64.60;99180.81;4989283;28;20449;-82